Time;durP1;ratioP1;P1;durP2;ratioP2;P2;SDS_P1;SDS_P2;PMS_P1;PMS_P2;Temp;Humidity;BMP_temperature;BMP_pressure;BME280_temperature;BME280_humidity;BME280_pressure;Samples;Min_cycle;Max_cycle;Signal;HPM_P1;HPM_P2
2020/12/18 00:01:05;;;;;;;16.85;4.10;;;3.30;95.20;;;;;;4903220;29;20254;-91
2020/12/18 00:09:52;;;;;;;5.50;2.45;;;3.30;94.80;;;;;;5420474;23;20348;-91
2020/12/18 00:16:08;;;;;;;38.45;2.97;;;3.20;94.70;;;;;;5027208;23;20063;-90
2020/12/18 00:24:32;;;;;;;7.40;2.58;;;3.20;95.10;;;;;;5229875;23;20044;-90
2020/12/18 01:04:27;;;;;;;4.88;2.92;;;3.60;93.90;;;;;;5344751;23;20033;-91
2020/12/18 01:07:08;;;;;;;5.82;2.67;;;3.50;94.10;;;;;;4888390;29;20096;-92
2020/12/18 01:09:45;;;;;;;6.65;3.50;;;3.40;94.30;;;;;;4903636;29;20044;-92
2020/12/18 01:12:17;;;;;;;7.32;2.50;;;3.30;94.10;;;;;;4905697;29;20044;-92
2020/12/18 01:15:25;;;;;;;5.32;2.50;;;3.40;93.90;;;;;;4887418;29;20033;-92
2020/12/18 01:30:49;;;;;;;4.75;2.10;;;3.30;94.20;;;;;;5539957;23;20370;-91
2020/12/18 01:33:22;;;;;;;5.25;2.38;;;3.30;94.10;;;;;;4903107;29;20077;-91
2020/12/18 01:35:56;;;;;;;5.20;2.33;;;3.20;94.20;;;;;;4903335;29;20049;-91
2020/12/18 01:38:48;;;;;;;5.70;2.58;;;3.20;94.00;;;;;;4887166;29;20076;-93
2020/12/18 01:41:25;;;;;;;4.88;2.45;;;3.20;94.20;;;;;;4904354;29;20063;-92
2020/12/18 01:43:59;;;;;;;4.55;2.40;;;3.10;93.70;;;;;;4868465;29;20032;-93
2020/12/18 01:46:35;;;;;;;4.68;1.98;;;3.10;94.00;;;;;;4903559;29;20044;-89
2020/12/18 01:52:04;;;;;;;3.95;1.58;;;3.10;94.10;;;;;;5300251;23;20067;-90
2020/12/18 02:04:41;;;;;;;4.43;1.73;;;3.00;94.20;;;;;;4894857;24;20052;-91
2020/12/18 02:07:36;;;;;;;3.78;1.65;;;3.00;94.20;;;;;;4881761;29;20078;-92
2020/12/18 02:10:40;;;;;;;4.45;2.22;;;3.00;94.10;;;;;;4897191;29;20059;-89
2020/12/18 02:13:26;;;;;;;2.53;1.35;;;2.90;94.00;;;;;;4881579;29;20093;-88
2020/12/18 02:16:27;;;;;;;4.03;1.98;;;2.90;93.60;;;;;;4883277;29;20045;-92
2020/12/18 02:19:18;;;;;;;3.50;1.52;;;2.90;93.70;;;;;;4895981;29;20045;-92
2020/12/18 02:21:51;;;;;;;2.88;1.42;;;2.80;93.80;;;;;;4881822;29;20069;-89
2020/12/18 02:24:32;;;;;;;3.28;1.70;;;2.80;93.80;;;;;;4901366;29;20052;-90
2020/12/18 02:27:34;;;;;;;2.87;1.43;;;2.70;93.80;;;;;;4899272;29;20097;-91
2020/12/18 02:33:34;;;;;;;3.17;1.60;;;2.70;94.20;;;;;;4893888;29;20121;-90
2020/12/18 02:36:13;;;;;;;3.00;1.00;;;2.70;94.30;;;;;;4899969;29;20051;-91
2020/12/18 02:38:56;;;;;;;2.70;1.42;;;2.80;93.80;;;;;;4885647;29;20045;-92
2020/12/18 02:41:43;;;;;;;3.20;1.20;;;2.80;93.80;;;;;;4898071;29;20045;-92
2020/12/18 02:44:55;;;;;;;1.85;1.35;;;2.80;93.70;;;;;;4889945;29;20081;-88
2020/12/18 02:51:06;;;;;;;1.17;0.73;;;2.90;93.30;;;;;;4877857;29;20048;-91
2020/12/18 02:53:53;;;;;;;2.63;1.25;;;2.90;93.10;;;;;;4892230;29;20049;-90
2020/12/18 02:57:02;;;;;;;2.60;1.27;;;2.90;93.40;;;;;;4894727;29;20041;-91
2020/12/18 03:00:25;;;;;;;3.92;1.23;;;3.00;93.50;;;;;;4880300;29;20116;-90
2020/12/18 03:10:26;;;;;;;4.55;1.60;;;3.20;94.00;;;;;;4898105;29;20029;-90
2020/12/18 03:13:15;;;;;;;3.63;1.67;;;3.20;94.40;;;;;;4897563;29;20051;-90
2020/12/18 03:16:18;;;;;;;2.72;1.38;;;3.30;94.00;;;;;;4894354;29;20045;-90
2020/12/18 03:22:51;;;;;;;3.80;1.58;;;3.20;93.80;;;;;;4913139;29;20055;-91
2020/12/18 03:29:43;;;;;;;4.40;1.73;;;3.20;94.00;;;;;;4891904;29;20082;-91
2020/12/18 03:32:26;;;;;;;4.18;2.15;;;3.30;95.00;;;;;;4886938;29;20049;-92
2020/12/18 03:35:15;;;;;;;5.45;2.10;;;3.40;95.00;;;;;;4885624;29;20053;-91
2020/12/18 03:37:50;;;;;;;4.97;2.58;;;3.60;94.80;;;;;;4882692;29;20041;-91
2020/12/18 03:40:26;;;;;;;4.38;1.92;;;3.70;94.40;;;;;;4880570;29;20045;-89
2020/12/18 03:43:31;;;;;;;7.07;2.00;;;3.70;94.20;;;;;;4883501;29;20048;-90
2020/12/18 03:46:51;;;;;;;4.90;2.08;;;3.70;94.50;;;;;;4889368;29;20032;-92
2020/12/18 03:49:44;;;;;;;5.50;2.00;;;3.80;94.40;;;;;;4897467;29;20109;-91
2020/12/18 03:52:49;;;;;;;6.03;1.85;;;3.80;94.30;;;;;;4897920;29;20061;-90
2020/12/18 03:55:50;;;;;;;3.92;2.22;;;3.70;93.90;;;;;;4895440;29;20053;-91
2020/12/18 03:59:06;;;;;;;5.22;2.35;;;3.70;94.20;;;;;;4886583;29;20042;-91
2020/12/18 04:18:50;;;;;;;0.70;0.70;;;3.50;93.80;;;;;;4785641;23;16192296;-91
2020/12/18 04:22:04;;;;;;;3.80;1.83;;;3.60;93.70;;;;;;4894983;29;20093;-91
2020/12/18 04:25:20;;;;;;;3.17;1.47;;;3.60;93.60;;;;;;4893526;29;20112;-90
2020/12/18 04:31:16;;;;;;;3.75;1.95;;;3.60;93.40;;;;;;4894635;29;20048;-90
2020/12/18 04:34:34;;;;;;;3.80;1.77;;;3.70;93.40;;;;;;4877355;29;20057;-90
2020/12/18 04:38:19;;;;;;;6.15;2.15;;;3.60;93.40;;;;;;4872734;29;20067;-90
2020/12/18 04:48:49;;;;;;;;;;;3.80;93.50;;;;;;4874108;29;20045;-91
2020/12/18 04:55:01;;;;;;;7.43;2.97;;;3.70;93.20;;;;;;4865572;29;20057;-92
2020/12/18 04:58:42;;;;;;;7.30;3.20;;;3.70;93.10;;;;;;4898327;29;20098;-90
2020/12/18 05:03:00;;;;;;;6.22;3.20;;;3.60;93.20;;;;;;4881643;29;20037;-92
2020/12/18 05:09:19;;;;;;;7.70;3.15;;;3.40;94.20;;;;;;4863686;29;20083;-90
2020/12/18 05:19:41;;;;;;;8.23;3.10;;;3.30;94.20;;;;;;4872972;29;20069;-90
2020/12/18 05:26:36;;;;;;;4.78;2.53;;;3.50;93.70;;;;;;4877571;29;20054;-91
2020/12/18 05:29:49;;;;;;;4.32;2.28;;;3.50;93.60;;;;;;4885107;29;20105;-90
2020/12/18 05:32:59;;;;;;;4.30;2.55;;;3.50;93.80;;;;;;4871006;29;20038;-90
2020/12/18 05:36:21;;;;;;;5.00;2.05;;;3.50;93.40;;;;;;4865694;29;20048;-89
2020/12/18 05:38:56;;;;;;;7.60;2.88;;;3.50;93.30;;;;;;4866390;29;20064;-90
2020/12/18 05:42:13;;;;;;;8.93;3.28;;;3.40;93.20;;;;;;4883061;29;20049;-90
2020/12/18 05:45:22;;;;;;;6.95;3.25;;;3.30;93.80;;;;;;4895663;29;20046;-90
2020/12/18 05:48:56;;;;;;;8.60;2.72;;;3.20;93.90;;;;;;4881763;29;20033;-90
2020/12/18 05:52:12;;;;;;;6.53;2.88;;;3.10;94.50;;;;;;4882864;29;20094;-90
2020/12/18 05:58:45;;;;;;;5.72;2.60;;;3.00;94.90;;;;;;4879140;29;20077;-90
2020/12/18 06:01:46;;;;;;;5.20;2.15;;;3.00;95.20;;;;;;4882479;29;20037;-92
2020/12/18 06:15:21;;;;;;;3.60;1.73;;;3.20;94.90;;;;;;4891946;29;20326;-91
2020/12/18 06:24:19;;;;;;;5.63;2.65;;;3.20;94.90;;;;;;4877591;29;20057;-90
2020/12/18 06:27:15;;;;;;;7.70;2.28;;;3.20;94.60;;;;;;4856265;29;20452;-90
2020/12/18 06:30:54;;;;;;;6.35;2.40;;;3.10;94.60;;;;;;4877361;29;20041;-91
2020/12/18 06:45:55;;;;;;;4.00;2.05;;;3.00;94.50;;;;;;4878694;29;20057;-91
2020/12/18 06:52:54;;;;;;;4.28;2.38;;;2.90;94.50;;;;;;4874934;29;20105;-89
2020/12/18 06:56:04;;;;;;;3.85;2.20;;;2.70;94.60;;;;;;4880684;29;20057;-90
2020/12/18 06:58:46;;;;;;;6.38;2.45;;;2.60;95.00;;;;;;4878394;29;20045;-91
2020/12/18 07:01:50;;;;;;;5.15;2.40;;;2.50;95.00;;;;;;4875597;29;20045;-90
2020/12/18 07:36:30;;;;;;;5.70;2.45;;;1.60;96.50;;;;;;4881021;29;20033;-90
2020/12/18 07:39:07;;;;;;;7.95;3.28;;;1.60;96.40;;;;;;4857753;29;20116;-91
2020/12/18 07:49:27;;;;;;;4.22;2.50;;;1.50;96.30;;;;;;4875352;29;20610;-91
2020/12/18 07:52:03;;;;;;;4.55;2.00;;;1.60;96.30;;;;;;4879668;29;20087;-90
2020/12/18 07:54:31;;;;;;;6.55;2.40;;;1.50;96.30;;;;;;4872866;29;20037;-91
2020/12/18 08:07:12;;;;;;;9.77;5.20;;;1.50;96.20;;;;;;4873833;29;20087;-91
2020/12/18 08:10:02;;;;;;;6.88;3.70;;;1.60;96.30;;;;;;4868050;29;20153;-91
2020/12/18 08:12:46;;;;;;;10.10;3.63;;;1.70;96.40;;;;;;4880387;29;20063;-90
2020/12/18 08:38:47;;;;;;;5.15;2.40;;;2.90;95.20;;;;;;4877894;29;20026;-91
2020/12/18 08:42:11;;;;;;;10.25;6.40;;;3.00;94.60;;;;;;4868407;29;20038;-90
2020/12/18 08:48:08;;;;;;;4.10;2.17;;;3.50;93.80;;;;;;4886269;29;20113;-90
2020/12/18 08:51:12;;;;;;;6.53;2.45;;;3.90;93.00;;;;;;4866504;29;20049;-89
2020/12/18 08:53:39;;;;;;;6.95;2.55;;;4.20;91.60;;;;;;4866522;29;20058;-92
2020/12/18 08:59:04;;;;;;;7.80;3.17;;;5.10;89.80;;;;;;4882672;29;20064;-92
2020/12/18 09:01:50;;;;;;;9.38;4.15;;;5.30;88.70;;;;;;4883344;29;20056;-91
2020/12/18 09:04:24;;;;;;;9.32;3.90;;;5.20;87.20;;;;;;4862314;29;20034;-90
2020/12/18 09:10:25;;;;;;;8.75;3.65;;;5.30;87.80;;;;;;4873880;29;20037;-90
2020/12/18 09:13:33;;;;;;;8.18;2.80;;;5.10;87.20;;;;;;4865910;29;20078;-90
2020/12/18 09:16:17;;;;;;;6.90;3.22;;;4.80;87.90;;;;;;4881334;29;20058;-90
2020/12/18 09:22:20;;;;;;;9.55;3.15;;;5.40;87.10;;;;;;4883200;29;20042;-89
2020/12/18 09:36:17;;;;;;;3.75;1.70;;;7.30;81.80;;;;;;4870019;29;20041;-91
2020/12/18 09:38:51;;;;;;;3.38;1.55;;;7.70;79.70;;;;;;4881339;29;20060;-91
2020/12/18 10:02:17;;;;;;;4.25;2.22;;;9.70;70.90;;;;;;5096039;23;20045;-91
2020/12/18 10:05:14;;;;;;;8.13;3.40;;;9.70;71.00;;;;;;4879685;29;20030;-90
2020/12/18 10:07:57;;;;;;;5.15;2.30;;;10.10;69.80;;;;;;4844374;29;20038;-91
2020/12/18 10:19:52;;;;;;;79.43;39.38;;;10.40;68.60;;;;;;4882834;29;20053;-90
2020/12/18 10:23:19;;;;;;;26.33;13.25;;;10.60;68.10;;;;;;4869972;29;20062;-90
2020/12/18 10:26:15;;;;;;;7.85;4.30;;;10.50;68.10;;;;;;4880104;29;20045;-89
2020/12/18 10:39:33;;;;;;;8.05;3.38;;;11.90;64.20;;;;;;5247086;24;20057;-88
2020/12/18 10:45:38;;;;;;;6.15;4.05;;;12.00;62.50;;;;;;4876557;29;20045;-89
2020/12/18 10:48:14;;;;;;;5.95;2.58;;;11.90;62.70;;;;;;4863079;29;20117;-90
2020/12/18 10:50:42;;;;;;;10.60;5.05;;;12.10;62.70;;;;;;4862919;29;20079;-86
2020/12/18 10:53:24;;;;;;;22.85;12.15;;;12.30;61.90;;;;;;4889972;29;20056;-90
2020/12/18 10:55:59;;;;;;;10.45;5.07;;;12.50;61.10;;;;;;4856326;29;20054;-89
2020/12/18 10:59:03;;;;;;;15.77;7.50;;;12.80;60.40;;;;;;4864995;29;20065;-88
2020/12/18 11:01:43;;;;;;;5.82;2.58;;;13.30;59.50;;;;;;4864970;29;20057;-90
2020/12/18 11:04:15;;;;;;;6.05;3.03;;;13.20;58.60;;;;;;4879188;29;20196;-90
2020/12/18 11:07:08;;;;;;;4.75;2.35;;;13.30;59.00;;;;;;4879408;29;20052;-89
2020/12/18 11:10:12;;;;;;;3.63;1.90;;;13.60;57.50;;;;;;4877271;29;20064;-88
2020/12/18 11:12:49;;;;;;;3.92;2.40;;;13.80;57.10;;;;;;4875028;29;20045;-89
2020/12/18 11:15:36;;;;;;;4.15;2.30;;;14.00;56.70;;;;;;4865611;29;20037;-89
2020/12/18 11:18:43;;;;;;;5.72;3.50;;;14.30;55.70;;;;;;4867701;29;20049;-92
2020/12/18 11:21:20;;;;;;;4.72;2.42;;;14.40;56.30;;;;;;4881778;29;20049;-90
2020/12/18 11:23:58;;;;;;;5.85;2.80;;;14.20;55.70;;;;;;4879832;29;20049;-91
2020/12/18 11:26:56;;;;;;;5.18;2.80;;;14.40;55.80;;;;;;4878320;29;20074;-90
2020/12/18 11:30:14;;;;;;;4.32;2.13;;;14.10;56.90;;;;;;4881799;29;20061;-89
2020/12/18 11:33:03;;;;;;;6.57;4.28;;;14.40;55.80;;;;;;4879422;29;20045;-89
2020/12/18 11:35:47;;;;;;;4.70;2.45;;;14.00;56.50;;;;;;4872969;29;20058;-88
2020/12/18 11:38:21;;;;;;;3.40;1.80;;;14.30;55.90;;;;;;4867285;29;20044;-89
2020/12/18 11:41:03;;;;;;;6.07;3.45;;;14.30;56.60;;;;;;4877789;29;20033;-88
2020/12/18 11:43:31;;;;;;;4.82;2.40;;;14.50;55.60;;;;;;4875568;29;20077;-89
2020/12/18 11:46:02;;;;;;;5.00;2.40;;;13.60;55.90;;;;;;4878596;29;20072;-89
2020/12/18 11:48:34;;;;;;;4.65;2.17;;;13.00;59.00;;;;;;4896343;29;20343;-90
2020/12/18 11:51:08;;;;;;;5.88;2.58;;;13.50;57.50;;;;;;4877797;29;20041;-88
2020/12/18 11:54:11;;;;;;;6.68;2.65;;;14.10;56.10;;;;;;4880984;29;20060;-90
2020/12/18 11:56:58;;;;;;;;;;;;;;;;;;;;;
2020/12/18 11:59:48;;;;;;;5.47;3.20;;;14.30;54.40;;;;;;4877175;29;20064;-88
2020/12/18 12:02:16;;;;;;;7.25;3.10;;;14.90;53.30;;;;;;4865336;29;20049;-89
2020/12/18 12:05:01;;;;;;;6.85;2.78;;;15.50;52.50;;;;;;4882547;29;20059;-89
2020/12/18 12:08:08;;;;;;;5.78;2.25;;;15.80;50.70;;;;;;4873349;29;20076;-88
2020/12/18 12:11:15;;;;;;;3.90;2.13;;;15.10;51.90;;;;;;4881932;29;20324;-90
2020/12/18 12:14:15;;;;;;;6.13;2.70;;;15.50;50.60;;;;;;4880464;29;20050;-89
2020/12/18 12:17:18;;;;;;;5.15;2.40;;;15.10;51.70;;;;;;4875957;29;20056;-89
2020/12/18 12:19:50;;;;;;;6.25;3.03;;;15.40;51.20;;;;;;4885711;29;20075;-89
2020/12/18 12:22:32;;;;;;;6.10;2.70;;;16.00;50.00;;;;;;4870264;29;20052;-89
2020/12/18 12:25:48;;;;;;;3.85;2.38;;;15.80;50.10;;;;;;4880249;29;20056;-89
2020/12/18 12:28:21;;;;;;;5.88;3.20;;;15.20;51.40;;;;;;4883682;29;20044;-88
2020/12/18 12:30:54;;;;;;;5.47;2.67;;;15.50;51.20;;;;;;4885900;29;20085;-89
2020/12/18 12:33:45;;;;;;;5.57;2.58;;;15.80;49.10;;;;;;4895125;29;20134;-89
2020/12/18 12:36:30;;;;;;;6.60;3.53;;;15.70;50.40;;;;;;4878112;29;20049;-88
2020/12/18 12:39:26;;;;;;;5.45;2.65;;;15.90;49.20;;;;;;4873575;29;20061;-89
2020/12/18 12:42:06;;;;;;;6.55;3.08;;;15.90;49.30;;;;;;4869760;29;20360;-90
2020/12/18 12:44:56;;;;;;;5.10;2.45;;;16.10;48.90;;;;;;4903430;29;20056;-91
2020/12/18 12:47:50;;;;;;;5.60;2.20;;;16.30;48.60;;;;;;4886443;29;20080;-90
2020/12/18 12:50:35;;;;;;;4.75;2.30;;;16.70;47.80;;;;;;4876601;29;20134;-88
2020/12/18 12:53:13;;;;;;;7.25;3.42;;;17.00;47.40;;;;;;4891219;29;20073;-90
2020/12/18 12:55:41;;;;;;;5.65;2.67;;;16.70;47.50;;;;;;4869177;29;20045;-89
2020/12/18 12:58:13;;;;;;;6.10;2.95;;;16.80;46.00;;;;;;4881396;29;20087;-89
2020/12/18 13:00:45;;;;;;;5.45;2.78;;;16.70;47.90;;;;;;4878662;29;20053;-89
2020/12/18 13:03:38;;;;;;;5.75;3.00;;;16.60;47.20;;;;;;4885966;29;20060;-90
2020/12/18 13:06:30;;;;;;;6.00;2.63;;;17.10;46.30;;;;;;4885223;29;20042;-90
2020/12/18 13:09:08;;;;;;;5.68;2.78;;;17.30;45.60;;;;;;4869144;29;20047;-89
2020/12/18 13:11:39;;;;;;;6.18;3.13;;;17.00;46.10;;;;;;4872984;29;20057;-90
2020/12/18 13:14:10;;;;;;;6.03;2.80;;;17.10;46.60;;;;;;4885551;29;20065;-90
2020/12/18 13:16:47;;;;;;;5.32;2.58;;;17.00;47.10;;;;;;4895599;29;20135;-89
2020/12/18 13:19:31;;;;;;;6.15;2.95;;;17.00;46.90;;;;;;4884244;29;20056;-89
2020/12/18 13:27:39;;;;;;;10.65;2.90;;;17.10;46.00;;;;;;4866938;29;20052;-88
2020/12/18 13:30:16;;;;;;;5.95;3.08;;;17.00;46.20;;;;;;4872641;29;20045;-88
2020/12/18 13:33:16;;;;;;;6.53;3.20;;;16.20;48.10;;;;;;4901224;29;20044;-88
2020/12/18 13:35:50;;;;;;;7.68;3.67;;;15.40;50.10;;;;;;4892455;29;20052;-88
2020/12/18 13:38:56;;;;;;;5.75;3.35;;;15.90;49.10;;;;;;4885263;29;20089;-88
2020/12/18 13:49:05;;;;;;;5.53;2.63;;;13.90;54.50;;;;;;4813286;29;20042;-89
2020/12/18 13:52:26;;;;;;;5.45;2.55;;;13.80;55.70;;;;;;4805723;29;20047;-89
2020/12/18 13:56:04;;;;;;;6.13;2.95;;;13.90;54.60;;;;;;4838147;29;20051;-89
2020/12/18 14:08:29;;;;;;;8.30;2.63;;;9.80;70.00;;;;;;5502395;23;20037;-90
2020/12/18 14:14:56;;;;;;;5.57;2.47;;;9.30;71.50;;;;;;4904378;29;20052;-88
2020/12/18 14:17:45;;;;;;;7.60;3.27;;;8.70;74.10;;;;;;4903445;29;20029;-88
2020/12/18 14:32:58;;;;;;;5.32;2.55;;;7.50;79.60;;;;;;4872942;29;20029;-88
2020/12/18 14:35:56;;;;;;;7.13;2.90;;;7.20;80.60;;;;;;4885334;29;20054;-89
2020/12/18 14:39:02;;;;;;;7.43;3.13;;;7.10;81.50;;;;;;4866142;29;20098;-88
2020/12/18 14:47:05;;;;;;;;;;;;;;;;;;;;;
2020/12/18 14:53:52;;;;;;;6.05;2.70;;;6.50;83.40;;;;;;4850019;29;20050;-87
2020/12/18 14:56:22;;;;;;;6.40;2.67;;;6.30;84.80;;;;;;4850522;29;20048;-89
2020/12/18 14:59:27;;;;;;;5.85;2.45;;;6.20;84.60;;;;;;4850766;29;20038;-88
2020/12/18 15:05:14;;;;;;;7.70;3.45;;;6.00;86.00;;;;;;4862624;29;20075;-88
2020/12/18 15:07:55;;;;;;;8.38;2.75;;;5.90;87.10;;;;;;4865863;29;20183;-88
2020/12/18 15:10:34;;;;;;;7.25;3.00;;;5.70;87.40;;;;;;4879103;29;20077;-88
2020/12/18 15:13:04;;;;;;;9.23;3.15;;;5.70;87.20;;;;;;4884695;29;20042;-86
2020/12/18 15:16:11;;;;;;;8.02;4.18;;;5.60;87.70;;;;;;4879315;29;20050;-88
2020/12/18 15:23:35;;;;;;;7.55;3.15;;;5.40;88.70;;;;;;4865284;29;20061;-88
2020/12/18 15:26:15;;;;;;;7.15;3.22;;;5.30;89.10;;;;;;4898657;29;20069;-88
2020/12/18 15:28:44;;;;;;;7.05;3.10;;;5.10;89.20;;;;;;4884507;29;20037;-87
2020/12/18 15:31:32;;;;;;;6.95;3.17;;;5.10;89.90;;;;;;4889014;29;20047;-87
2020/12/18 15:34:32;;;;;;;6.03;2.83;;;5.00;90.30;;;;;;4893012;29;20041;-88
2020/12/18 15:37:23;;;;;;;8.15;3.20;;;5.00;89.80;;;;;;4888003;29;20039;-89
2020/12/18 15:44:29;;;;;;;6.82;3.33;;;4.80;90.40;;;;;;4845474;29;20305;-91
2020/12/18 15:47:58;;;;;;;5.93;2.97;;;4.70;91.30;;;;;;4868990;29;20082;-90
2020/12/18 15:50:37;;;;;;;8.05;3.10;;;4.70;91.60;;;;;;4841851;29;20070;-90
2020/12/18 15:53:57;;;;;;;8.10;3.38;;;4.70;92.30;;;;;;4830234;29;20342;-90
2020/12/18 15:57:04;;;;;;;8.13;3.33;;;4.60;92.30;;;;;;4888752;29;20052;-89
2020/12/18 15:59:34;;;;;;;9.15;4.45;;;4.60;92.40;;;;;;4885991;29;20045;-91
2020/12/18 16:02:08;;;;;;;7.90;3.70;;;4.50;92.70;;;;;;4901157;29;20037;-90
2020/12/18 16:04:38;;;;;;;10.75;3.72;;;4.50;92.80;;;;;;4899362;29;20049;-88
2020/12/18 16:07:17;;;;;;;6.70;2.75;;;4.50;93.00;;;;;;4883963;29;20105;-88
2020/12/18 16:09:52;;;;;;;7.25;3.08;;;4.50;92.80;;;;;;4864240;29;20129;-88
2020/12/18 16:12:26;;;;;;;13.98;7.55;;;4.40;93.20;;;;;;4858136;29;20057;-89
2020/12/18 16:14:57;;;;;;;12.38;5.00;;;4.40;93.40;;;;;;4882126;29;20074;-88
2020/12/18 16:17:41;;;;;;;11.50;5.25;;;4.40;93.20;;;;;;4899484;29;20061;-88
2020/12/18 16:20:08;;;;;;;9.75;4.55;;;4.50;93.10;;;;;;4888332;29;20117;-89
2020/12/18 16:22:40;;;;;;;11.75;4.05;;;4.50;93.40;;;;;;4881985;29;20049;-89
2020/12/18 16:25:22;;;;;;;10.18;4.28;;;4.40;93.40;;;;;;4867676;29;20057;-89
2020/12/18 16:28:17;;;;;;;11.23;5.50;;;4.50;93.40;;;;;;4882741;29;20420;-88
2020/12/18 16:30:45;;;;;;;11.05;4.80;;;4.50;93.40;;;;;;4882880;29;20077;-89
2020/12/18 16:33:13;;;;;;;9.90;4.50;;;4.50;93.40;;;;;;4889435;29;20058;-88
2020/12/18 16:35:56;;;;;;;11.52;5.28;;;4.60;93.50;;;;;;4901304;29;20041;-88
2020/12/18 16:38:26;;;;;;;10.07;4.40;;;4.60;93.50;;;;;;4884269;29;20113;-89
2020/12/18 16:40:57;;;;;;;7.97;3.50;;;4.70;93.30;;;;;;4863015;29;20053;-90
2020/12/18 16:43:38;;;;;;;9.00;3.85;;;4.70;93.20;;;;;;4879656;29;20049;-88
2020/12/18 16:46:06;;;;;;;7.82;3.38;;;4.70;93.00;;;;;;4897481;29;20041;-89
2020/12/18 16:48:48;;;;;;;7.22;4.28;;;4.80;92.80;;;;;;4867210;29;20049;-89
2020/12/18 16:51:26;;;;;;;7.55;3.53;;;4.80;92.70;;;;;;4878760;29;20046;-88
2020/12/18 16:54:02;;;;;;;7.57;4.15;;;4.90;92.50;;;;;;4882615;29;20049;-88
2020/12/18 16:56:39;;;;;;;10.15;4.80;;;5.00;92.30;;;;;;4902510;29;20049;-88
2020/12/18 16:59:34;;;;;;;6.95;3.70;;;5.10;92.10;;;;;;4870019;29;20078;-89
2020/12/18 17:02:15;;;;;;;9.15;4.72;;;5.10;91.90;;;;;;4877218;29;20041;-88
2020/12/18 17:04:49;;;;;;;9.38;4.20;;;5.20;91.70;;;;;;4886836;29;20053;-89
2020/12/18 17:07:20;;;;;;;7.80;3.72;;;5.20;91.50;;;;;;4899681;29;20057;-87
2020/12/18 17:10:01;;;;;;;8.27;3.45;;;5.20;91.10;;;;;;4884834;29;20142;-88
2020/12/18 17:12:37;;;;;;;10.18;3.28;;;5.20;91.10;;;;;;4884526;29;20049;-89
2020/12/18 17:15:38;;;;;;;6.55;3.50;;;5.30;91.10;;;;;;4881064;29;20054;-89
2020/12/18 17:18:12;;;;;;;7.97;3.38;;;5.30;90.80;;;;;;4874116;29;20070;-89
2020/12/18 17:23:51;;;;;;;9.95;4.07;;;5.30;90.60;;;;;;4885766;29;20081;-88
2020/12/18 17:26:36;;;;;;;9.93;4.20;;;5.30;90.50;;;;;;4885236;29;20075;-89
2020/12/18 17:29:35;;;;;;;9.05;3.97;;;5.30;90.50;;;;;;4886124;29;20041;-88
2020/12/18 17:32:07;;;;;;;8.10;3.97;;;5.30;90.30;;;;;;4870145;29;20045;-88
2020/12/18 17:35:01;;;;;;;10.70;4.85;;;5.30;90.30;;;;;;4886295;29;20053;-89
2020/12/18 17:37:30;;;;;;;11.88;4.40;;;5.20;90.50;;;;;;4870104;29;20052;-88
2020/12/18 17:40:25;;;;;;;12.30;5.10;;;5.20;90.70;;;;;;4891752;29;20045;-88
2020/12/18 17:43:02;;;;;;;12.95;5.85;;;5.20;90.70;;;;;;4867124;29;20070;-88
2020/12/18 17:45:38;;;;;;;7.93;3.95;;;5.10;90.80;;;;;;4890144;29;20053;-86
2020/12/18 17:48:10;;;;;;;7.70;3.53;;;5.20;90.90;;;;;;4885687;29;20065;-88
2020/12/18 17:51:24;;;;;;;8.48;4.35;;;5.10;91.00;;;;;;4869760;29;20046;-89
2020/12/18 17:54:26;;;;;;;12.52;4.47;;;5.10;91.10;;;;;;4884995;29;20049;-88
2020/12/18 18:08:22;;;;;;;6.97;3.58;;;5.20;91.00;;;;;;4878069;29;20078;-88
2020/12/18 18:11:20;;;;;;;11.23;5.60;;;5.20;91.00;;;;;;4868512;29;20109;-89
2020/12/18 18:13:58;;;;;;;10.77;5.35;;;5.20;91.00;;;;;;4882020;29;20049;-88
2020/12/18 18:16:33;;;;;;;9.93;4.45;;;5.20;91.00;;;;;;4908837;29;20048;-90
2020/12/18 18:19:07;;;;;;;17.77;7.22;;;5.20;91.00;;;;;;4880328;29;20065;-90
2020/12/18 18:21:47;;;;;;;8.77;4.78;;;5.20;91.10;;;;;;4832734;29;20062;-86
2020/12/18 18:24:23;;;;;;;10.10;4.07;;;5.20;91.10;;;;;;4863057;29;20061;-87
2020/12/18 18:27:19;;;;;;;9.90;4.30;;;5.20;91.10;;;;;;399714;29;10021766;-89
2020/12/18 18:29:55;;;;;;;10.13;4.53;;;5.20;91.10;;;;;;4875644;29;20297;-90
2020/12/18 18:32:52;;;;;;;13.13;6.22;;;5.30;91.10;;;;;;4866437;29;20072;-88
2020/12/18 18:35:30;;;;;;;14.48;6.70;;;5.30;91.10;;;;;;4895394;29;20073;-88
2020/12/18 18:38:06;;;;;;;15.73;7.25;;;5.40;90.90;;;;;;4914885;29;20057;-88
2020/12/18 18:40:37;;;;;;;13.45;5.35;;;5.50;90.60;;;;;;4889598;29;20041;-89
2020/12/18 18:43:16;;;;;;;10.13;4.50;;;5.40;90.60;;;;;;4893572;29;20072;-89
2020/12/18 18:45:48;;;;;;;9.82;4.40;;;5.60;90.60;;;;;;4896972;29;20068;-89
2020/12/18 18:48:29;;;;;;;11.20;5.75;;;5.70;90.20;;;;;;4879497;29;20048;-89
2020/12/18 18:51:11;;;;;;;34.40;15.27;;;5.70;90.20;;;;;;4869525;29;20053;-91
2020/12/18 18:53:47;;;;;;;18.25;7.55;;;5.70;90.50;;;;;;4876464;29;20065;-90
2020/12/18 18:56:18;;;;;;;13.25;6.43;;;5.70;90.60;;;;;;4864648;29;20054;-89
2020/12/18 18:59:13;;;;;;;9.65;4.63;;;5.70;90.50;;;;;;4881610;29;20078;-88
2020/12/18 19:02:10;;;;;;;12.75;5.70;;;5.70;90.20;;;;;;4871142;29;20056;-87
2020/12/18 19:04:53;;;;;;;24.85;9.63;;;5.70;90.20;;;;;;4885178;29;20093;-88
2020/12/18 19:07:26;;;;;;;18.15;8.95;;;5.70;90.40;;;;;;4871748;29;20066;-88
2020/12/18 19:10:04;;;;;;;18.67;7.68;;;5.60;90.60;;;;;;4876729;29;20065;-89
2020/12/18 19:12:51;;;;;;;16.02;6.57;;;5.70;90.50;;;;;;4877298;29;20049;-90
2020/12/18 19:15:41;;;;;;;15.13;6.40;;;5.70;90.60;;;;;;4875051;29;20045;-88
2020/12/18 19:18:24;;;;;;;14.60;6.78;;;5.70;90.60;;;;;;4873079;29;20053;-88
2020/12/18 19:21:01;;;;;;;12.65;6.10;;;5.70;90.40;;;;;;4880621;29;20052;-92
2020/12/18 19:23:38;;;;;;;14.90;6.43;;;5.70;90.70;;;;;;4865946;29;20078;-89
2020/12/18 19:26:16;;;;;;;12.35;5.32;;;5.70;90.70;;;;;;4856642;29;20057;-91
2020/12/18 19:28:55;;;;;;;17.48;9.35;;;5.70;90.70;;;;;;4855533;29;20092;-90
2020/12/18 19:31:27;;;;;;;13.00;5.85;;;5.70;90.80;;;;;;4888402;29;20057;-88
2020/12/18 19:34:04;;;;;;;9.02;4.65;;;5.70;90.70;;;;;;4865049;29;20073;-89
2020/12/18 19:36:36;;;;;;;12.32;5.63;;;5.70;91.00;;;;;;4868133;29;20081;-88
2020/12/18 19:39:08;;;;;;;11.63;6.00;;;5.80;90.90;;;;;;4880189;29;20065;-89
2020/12/18 19:41:43;;;;;;;12.23;5.32;;;5.80;90.80;;;;;;4905260;29;20045;-88
2020/12/18 19:44:34;;;;;;;12.20;5.00;;;5.80;90.70;;;;;;4880499;29;20050;-89
2020/12/18 19:47:17;;;;;;;15.05;6.95;;;5.80;90.70;;;;;;4895990;29;20053;-89
2020/12/18 19:49:50;;;;;;;8.65;5.00;;;5.90;90.70;;;;;;4880686;29;20054;-92
2020/12/18 19:52:33;;;;;;;9.73;5.65;;;5.90;90.30;;;;;;4882176;29;20070;-89
2020/12/18 19:55:07;;;;;;;11.82;5.75;;;5.90;90.60;;;;;;4862631;29;20054;-88
2020/12/18 19:57:51;;;;;;;11.48;5.70;;;5.80;90.50;;;;;;4873948;29;20057;-88
2020/12/18 20:00:27;;;;;;;9.68;4.70;;;5.90;90.60;;;;;;4864815;29;20058;-89
2020/12/18 20:03:03;;;;;;;11.00;5.75;;;5.80;90.60;;;;;;4876543;29;20053;-89
2020/12/18 20:05:59;;;;;;;9.15;4.60;;;5.80;90.70;;;;;;4876641;29;20080;-89
2020/12/18 20:08:27;;;;;;;12.30;4.50;;;5.90;90.80;;;;;;4879876;29;20050;-90
2020/12/18 20:11:03;;;;;;;11.93;5.82;;;5.90;90.80;;;;;;4879526;29;20081;-89
2020/12/18 20:13:54;;;;;;;11.23;5.32;;;5.90;90.60;;;;;;4880921;29;20101;-89
2020/12/18 20:16:44;;;;;;;12.57;5.53;;;5.90;90.50;;;;;;4879434;29;20238;-90
2020/12/18 20:19:21;;;;;;;13.13;5.75;;;5.90;90.70;;;;;;4863598;29;20066;-88
2020/12/18 20:22:09;;;;;;;11.50;5.40;;;5.90;90.60;;;;;;4860746;29;20061;-91
2020/12/18 20:24:44;;;;;;;11.55;4.57;;;6.00;90.60;;;;;;4861757;29;20050;-90
2020/12/18 20:27:18;;;;;;;9.68;4.38;;;6.00;90.40;;;;;;4878888;29;20082;-90
2020/12/18 20:30:17;;;;;;;16.63;6.43;;;5.90;90.60;;;;;;4865482;29;20050;-89
2020/12/18 20:32:55;;;;;;;10.23;5.00;;;6.00;90.50;;;;;;4878594;29;20244;-90
2020/12/18 20:35:30;;;;;;;10.85;5.78;;;6.00;90.50;;;;;;4884434;29;20073;-90
2020/12/18 20:38:13;;;;;;;12.85;6.38;;;6.00;90.50;;;;;;4882427;29;20065;-88
2020/12/18 20:40:42;;;;;;;12.38;5.78;;;6.00;90.60;;;;;;4865784;29;20045;-90
2020/12/18 20:43:20;;;;;;;10.88;5.25;;;5.90;90.70;;;;;;4882801;29;20046;-89
2020/12/18 20:45:58;;;;;;;11.05;5.00;;;6.00;90.70;;;;;;4881480;29;20060;-89
2020/12/18 20:48:58;;;;;;;11.50;4.97;;;5.90;90.60;;;;;;4878126;29;20109;-88
2020/12/18 20:51:50;;;;;;;16.27;6.85;;;5.90;90.60;;;;;;4867587;29;20091;-88
2020/12/18 20:57:26;;;;;;;10.57;4.65;;;5.90;90.70;;;;;;4857743;29;20477;-88
2020/12/18 21:00:03;;;;;;;10.95;5.35;;;5.90;90.60;;;;;;4880009;29;20052;-89
2020/12/18 21:02:45;;;;;;;15.13;6.85;;;5.90;90.50;;;;;;4889279;29;20064;-88
2020/12/18 21:08:21;;;;;;;10.45;5.40;;;5.90;90.50;;;;;;4863903;29;20061;-89
2020/12/18 21:11:10;;;;;;;12.30;4.85;;;5.90;90.50;;;;;;4881832;29;20072;-88
2020/12/18 21:13:46;;;;;;;17.17;7.30;;;5.80;90.80;;;;;;4878794;29;20057;-88
2020/12/18 21:16:26;;;;;;;22.95;9.65;;;5.90;90.70;;;;;;4867733;29;20049;-89
2020/12/18 21:19:18;;;;;;;16.98;6.57;;;5.90;90.20;;;;;;4862566;29;20073;-88
2020/12/18 21:21:58;;;;;;;10.70;4.38;;;6.00;90.30;;;;;;4853548;29;20080;-90